Time;durP1;ratioP1;P1;durP2;ratioP2;P2;SDS_P1;SDS_P2;PMS_P1;PMS_P2;Temp;Humidity;BMP_temperature;BMP_pressure;BME280_temperature;BME280_humidity;BME280_pressure;Samples;Min_cycle;Max_cycle;Signal;HPM_P1;HPM_P2
2022/12/06 00:01:17;;;;;;;;;;;;;;;21.24;50.44;101216.47;5053629;28;4070;-75
2022/12/06 00:03:44;;;;;;;;;;;;;;;21.23;50.28;101220.72;5052935;28;4184;-75
2022/12/06 00:06:11;;;;;;;;;;;;;;;21.23;50.25;101209.19;5049831;28;4127;-75
2022/12/06 00:08:38;;;;;;;;;;;;;;;21.22;50.06;101212.75;5051611;28;4117;-75
2022/12/06 00:11:05;;;;;;;;;;;;;;;21.20;50.11;101219.13;5040354;28;4227;-75
2022/12/06 00:13:31;;;;;;;;;;;;;;;21.21;50.38;101214.13;5055590;28;5609;-75
2022/12/06 00:16:01;;;;;;;;;;;;;;;21.20;50.18;101222.03;5055402;28;4124;-76
2022/12/06 00:18:28;;;;;;;;;;;;;;;21.20;50.18;101222.03;5055997;28;6289;-76
2022/12/06 00:20:54;;;;;;;;;;;;;;;21.20;50.18;101216.25;5059578;28;4131;-77
2022/12/06 00:23:20;;;;;;;;;;;;;;;21.21;49.82;101217.78;5056848;28;5234;-76
2022/12/06 00:25:47;;;;;;;;;;;;;;;21.23;49.93;101214.97;5051831;28;5256;-76
2022/12/06 00:28:13;;;;;;;;;;;;;;;21.24;50.08;101215.72;5044104;28;5363;-76
2022/12/06 00:30:39;;;;;;;;;;;;;;;21.24;49.92;101219.34;5050735;28;4129;-75
2022/12/06 00:33:06;;;;;;;;;;;;;;;21.25;49.74;101211.44;5051245;28;5060;-76
2022/12/06 00:35:32;;;;;;;;;;;;;;;21.25;50.23;101212.19;5056087;28;4107;-75
2022/12/06 00:37:58;;;;;;;;;;;;;;;21.26;50.14;101218.72;5051721;28;5214;-75
2022/12/06 00:40:25;;;;;;;;;;;;;;;21.25;49.91;101220.09;5054565;28;4136;-75
2022/12/06 00:42:51;;;;;;;;;;;;;;;21.25;50.07;101206.41;5047601;28;4116;-75
2022/12/06 00:45:17;;;;;;;;;;;;;;;21.24;49.93;101209.97;5051404;28;4193;-75
2022/12/06 00:47:44;;;;;;;;;;;;;;;21.24;50.33;101210.69;5044120;28;4131;-75
2022/12/06 00:50:10;;;;;;;;;;;;;;;21.24;50.06;101202.06;5049555;28;4346;-75
2022/12/06 00:52:37;;;;;;;;;;;;;;;21.24;50.26;101202.06;5051538;28;4296;-75
2022/12/06 00:55:03;;;;;;;;;;;;;;;21.23;50.25;101203.44;5046576;28;4042;-75
2022/12/06 00:57:29;;;;;;;;;;;;;;;21.22;50.24;101201.97;5050045;28;5234;-75
2022/12/06 00:59:56;;;;;;;;;;;;;;;21.21;50.24;101197.59;5050496;28;4397;-75
2022/12/06 01:02:23;;;;;;;;;;;;;;;21.20;50.21;101198.97;5046252;28;5432;-78
2022/12/06 01:04:49;;;;;;;;;;;;;;;21.19;50.38;101197.50;5040932;28;5633;-76
2022/12/06 01:07:15;;;;;;;;;;;;;;;21.19;50.36;101211.91;5046871;28;4225;-75
2022/12/06 01:09:41;;;;;;;;;;;;;;;21.19;50.23;101199.63;5041881;28;4023;-77
2022/12/06 01:12:08;;;;;;;;;;;;;;;21.17;50.24;101194.53;5048069;28;4211;-75
2022/12/06 01:14:34;;;;;;;;;;;;;;;21.17;50.29;101194.53;5047588;28;4030;-75
2022/12/06 01:17:00;;;;;;;;;;;;;;;21.17;50.23;101200.28;5049621;28;4030;-76
2022/12/06 01:19:27;;;;;;;;;;;;;;;21.17;50.26;101188.75;5048624;28;4204;-74
2022/12/06 01:21:53;;;;;;;;;;;;;;;21.16;50.27;101193.03;5046940;28;5451;-75
2022/12/06 01:24:19;;;;;;;;;;;;;;;21.16;50.21;101187.25;5037124;28;4208;-76
2022/12/06 01:26:46;;;;;;;;;;;;;;;21.16;50.35;101186.53;5041148;28;4196;-75
2022/12/06 01:29:12;;;;;;;;;;;;;;;21.16;50.10;101180.75;5033317;28;4229;-76
2022/12/06 01:31:38;;;;;;;;;;;;;;;21.15;50.20;101182.91;5041349;28;5242;-76
2022/12/06 01:34:12;;;;;;;;;;;;;;;21.16;50.13;101193.03;5039837;28;4220;-75
2022/12/06 01:36:38;;;;;;;;;;;;;;;21.18;50.14;101190.25;5039682;28;4187;-76
2022/12/06 01:39:08;;;;;;;;;;;;;;;21.18;50.20;101184.47;5036221;28;4176;-76
2022/12/06 01:41:35;;;;;;;;;;;;;;;21.18;49.96;101183.75;5034104;28;4125;-77
2022/12/06 01:44:01;;;;;;;;;;;;;;;21.17;50.31;101183.00;5035674;28;4169;-76
2022/12/06 01:46:29;;;;;;;;;;;;;;;21.17;50.14;101185.88;5046506;28;4084;-76
2022/12/06 01:48:57;;;;;;;;;;;;;;;21.18;50.14;101192.38;5047473;28;4076;-76
2022/12/06 01:51:24;;;;;;;;;;;;;;;21.17;50.15;101185.88;5041681;28;4004;-76
2022/12/06 01:53:50;;;;;;;;;;;;;;;21.18;50.27;101183.75;5037097;28;4193;-76
2022/12/06 01:56:16;;;;;;;;;;;;;;;21.16;50.20;101187.25;5042932;28;4017;-75
2022/12/06 01:58:43;;;;;;;;;;;;;;;21.16;50.26;101184.38;5044342;28;3926;-76
2022/12/06 02:01:09;;;;;;;;;;;;;;;21.16;50.12;101186.53;5045474;28;3968;-75
2022/12/06 02:03:36;;;;;;;;;;;;;;;21.15;50.30;101180.03;5034438;28;5493;-76
2022/12/06 02:06:02;;;;;;;;;;;;;;;21.13;50.42;101185.69;5046669;28;3935;-76
2022/12/06 02:08:29;;;;;;;;;;;;;;;21.12;50.39;101182.06;5032405;28;4024;-77
2022/12/06 02:10:55;;;;;;;;;;;;;;;21.13;50.05;101182.81;5038660;28;4173;-77
2022/12/06 02:13:21;;;;;;;;;;;;;;;21.14;50.27;101178.53;5051865;28;5459;-76
2022/12/06 02:15:50;;;;;;;;;;;;;;;21.14;50.36;101169.88;5039009;28;4956;-76
2022/12/06 02:18:33;;;;;;;;;;;;;;;21.14;50.25;101164.13;5048190;28;4126;-76
2022/12/06 02:21:06;;;;;;;;;;;;;;;21.14;50.25;101155.47;5036394;28;5120;-76
2022/12/06 02:23:45;;;;;;;;;;;;;;;21.15;50.22;101156.97;5043530;28;5242;-76
2022/12/06 02:26:21;;;;;;;;;;;;;;;21.14;49.99;101155.47;5063268;28;4018;-76
2022/12/06 02:28:58;;;;;;;;;;;;;;;21.15;50.12;101156.97;5034244;28;4131;-76
2022/12/06 02:31:26;;;;;;;;;;;;;;;21.13;50.36;101148.25;5040889;28;5358;-76
2022/12/06 02:33:54;;;;;;;;;;;;;;;21.14;50.31;101143.97;5048968;28;3868;-76
2022/12/06 02:36:29;;;;;;;;;;;;;;;21.12;50.25;101150.38;5050637;28;4035;-75
2022/12/06 02:38:56;;;;;;;;;;;;;;;21.11;50.29;101146.00;5037557;28;4170;-76
2022/12/06 02:41:24;;;;;;;;;;;;;;;21.11;50.05;101157.53;5045441;28;3971;-76
2022/12/06 02:43:52;;;;;;;;;;;;;;;21.10;50.29;101153.16;5039327;28;4163;-76
2022/12/06 02:46:19;;;;;;;;;;;;;;;21.10;50.07;101152.44;5048231;28;4128;-76
2022/12/06 02:48:45;;;;;;;;;;;;;;;21.11;50.15;101145.28;5048325;28;4095;-76
2022/12/06 02:51:12;;;;;;;;;;;;;;;21.11;50.12;101136.63;5049186;28;5189;-76
2022/12/06 02:53:39;;;;;;;;;;;;;;;21.09;50.14;101137.28;5037374;28;4115;-76
2022/12/06 02:56:05;;;;;;;;;;;;;;;21.10;50.11;101138.03;5051928;28;4135;-76
2022/12/06 02:58:35;;;;;;;;;;;;;;;21.11;50.09;101148.16;5051007;28;4193;-76
2022/12/06 03:01:03;;;;;;;;;;;;;;;21.11;49.99;101146.00;5052958;28;4316;-77
2022/12/06 03:03:48;;;;;;;;;;;;;;;21.12;50.21;101141.00;5048988;28;6280;-76
2022/12/06 03:06:17;;;;;;;;;;;;;;;21.13;50.34;101139.59;5047383;28;5208;-77
2022/12/06 03:08:56;;;;;;;;;;;;;;;21.11;50.06;101133.75;5037724;28;4184;-76
2022/12/06 03:11:23;;;;;;;;;;;;;;;21.11;50.02;101130.88;5048979;28;4398;-75
2022/12/06 03:13:59;;;;;;;;;;;;;;;21.11;50.34;101128.00;5052201;28;5336;-75
2022/12/06 03:16:27;;;;;;;;;;;;;;;21.09;50.27;101127.88;5054589;28;5480;-75
2022/12/06 03:19:02;;;;;;;;;;;;;;;21.09;50.36;101125.75;5052615;28;4184;-75
2022/12/06 03:21:32;;;;;;;;;;;;;;;21.09;50.36;101122.13;5048739;28;4145;-76
2022/12/06 03:23:58;;;;;;;;;;;;;;;21.09;50.34;101119.25;5045004;28;4194;-76
2022/12/06 03:26:26;;;;;;;;;;;;;;;21.07;50.43;101114.16;5052877;28;4203;-75
2022/12/06 03:28:53;;;;;;;;;;;;;;;21.07;50.35;101104.75;5038537;28;5443;-76
2022/12/06 03:31:21;;;;;;;;;;;;;;;21.06;50.36;101117.69;5044302;28;4188;-76
2022/12/06 03:33:48;;;;;;;;;;;;;;;21.06;50.21;101109.78;5052002;28;3986;-77
2022/12/06 03:36:15;;;;;;;;;;;;;;;21.07;50.15;101110.50;5047304;28;4046;-76
2022/12/06 03:38:45;;;;;;;;;;;;;;;21.06;50.23;101109.03;5045907;28;4145;-76
2022/12/06 03:41:11;;;;;;;;;;;;;;;21.05;50.15;101111.19;5053555;28;4121;-76
2022/12/06 03:43:38;;;;;;;;;;;;;;;21.06;50.34;101109.78;5044337;28;4143;-77
2022/12/06 03:46:11;;;;;;;;;;;;;;;21.06;50.07;101109.03;5047208;28;4059;-76
2022/12/06 03:48:39;;;;;;;;;;;;;;;21.07;50.08;101110.50;5041397;28;4113;-76
2022/12/06 03:51:09;;;;;;;;;;;;;;;21.09;49.92;101108.47;5043405;28;4072;-76
2022/12/06 03:53:43;;;;;;;;;;;;;;;21.11;50.15;101107.84;5035498;28;4388;-77
2022/12/06 03:56:09;;;;;;;;;;;;;;;21.11;50.20;101107.84;5047947;28;4918;-76
2022/12/06 03:58:35;;;;;;;;;;;;;;;21.12;50.52;101100.69;5038180;28;4241;-76
2022/12/06 04:01:03;;;;;;;;;;;;;;;21.14;50.33;101097.88;5036803;28;4321;-76
2022/12/06 04:03:29;;;;;;;;;;;;;;;21.15;50.84;101099.41;5036427;28;4178;-76
2022/12/06 04:05:56;;;;;;;;;;;;;;;21.15;50.55;101098.66;5039190;28;4163;-76
2022/12/06 04:08:22;;;;;;;;;;;;;;;21.15;50.51;101105.16;5041003;28;4340;-76
2022/12/06 04:10:49;;;;;;;;;;;;;;;21.17;50.54;101108.13;5042166;28;3965;-76
2022/12/06 04:13:16;;;;;;;;;;;;;;;21.17;50.38;101102.38;5050916;28;4229;-76
2022/12/06 04:15:45;;;;;;;;;;;;;;;21.18;50.44;101097.34;5041366;28;5162;-76
2022/12/06 04:18:15;;;;;;;;;;;;;;;21.18;50.51;101092.31;5046281;28;4116;-75
2022/12/06 04:23:27;;;;;;;;;;;;;;;21.15;50.80;101085.00;5040850;28;4301;-75
2022/12/06 04:25:54;;;;;;;;;;;;;;;21.15;50.69;101087.13;5048629;28;4120;-75
2022/12/06 04:39:20;;;;;;;;;;;;;;;21.15;50.37;101070.59;5038572;28;4218;-75
2022/12/06 04:44:32;;;;;;;;;;;;;;;21.15;50.75;101056.19;5049487;28;4183;-74
2022/12/06 04:46:58;;;;;;;;;;;;;;;21.15;50.77;101059.06;5041230;28;4204;-76
2022/12/06 04:49:25;;;;;;;;;;;;;;;21.13;50.68;101056.84;5044986;28;4170;-75
2022/12/06 04:51:52;;;;;;;;;;;;;;;21.12;50.46;101054.63;5044303;28;4109;-76
2022/12/06 04:54:18;;;;;;;;;;;;;;;21.13;50.73;101053.97;5046379;28;4581;-75
2022/12/06 04:56:45;;;;;;;;;;;;;;;21.14;50.51;101051.81;5045332;28;4137;-76
2022/12/06 04:59:11;;;;;;;;;;;;;;;21.15;50.49;101050.44;5044065;28;4314;-76
2022/12/06 05:01:37;;;;;;;;;;;;;;;21.17;50.51;101050.53;5043823;28;5355;-75
2022/12/06 05:04:04;;;;;;;;;;;;;;;21.18;50.41;101046.25;5047284;28;4492;-76
2022/12/06 05:06:30;;;;;;;;;;;;;;;21.18;50.33;101043.38;5038549;28;4305;-76
2022/12/06 05:08:57;;;;;;;;;;;;;;;21.19;50.37;101042.00;5035206;28;4172;-76
2022/12/06 05:11:23;;;;;;;;;;;;;;;21.20;50.34;101055.00;5041926;28;4167;-75
2022/12/06 05:13:49;;;;;;;;;;;;;;;21.19;50.94;101044.88;5043839;28;4298;-76
2022/12/06 05:16:15;;;;;;;;;;;;;;;21.21;50.90;101050.72;5041530;28;4184;-76
2022/12/06 05:18:42;;;;;;;;;;;;;;;21.20;50.80;101052.09;5038734;28;4117;-75
2022/12/06 05:21:11;;;;;;;;;;;;;;;21.19;50.83;101044.88;5045793;28;4294;-75
2022/12/06 05:23:37;;;;;;;;;;;;;;;21.18;50.89;101046.25;5034591;28;4326;-76
2022/12/06 05:26:05;;;;;;;;;;;;;;;21.18;50.61;101046.25;5046690;28;4030;-76
2022/12/06 05:28:31;;;;;;;;;;;;;;;21.18;50.65;101037.63;5044497;28;4441;-77
2022/12/06 05:30:57;;;;;;;;;;;;;;;21.18;50.76;101040.50;5049240;28;5457;-77
2022/12/06 05:33:24;;;;;;;;;;;;;;;21.17;50.43;101041.91;5044687;28;5217;-78
2022/12/06 05:35:50;;;;;;;;;;;;;;;21.17;50.72;101044.78;5047386;28;5371;-78
2022/12/06 05:38:17;;;;;;;;;;;;;;;21.17;50.71;101036.13;5039699;28;4201;-79
2022/12/06 05:40:44;;;;;;;;;;;;;;;21.17;50.67;101041.91;5045786;28;4206;-78
2022/12/06 05:43:11;;;;;;;;;;;;;;;21.17;50.59;101032.53;5044383;28;5218;-79
2022/12/06 05:45:37;;;;;;;;;;;;;;;21.17;50.65;101033.25;5035257;28;5238;-79
2022/12/06 05:48:04;;;;;;;;;;;;;;;21.17;50.74;101041.16;5042396;28;4169;-78
2022/12/06 05:50:30;;;;;;;;;;;;;;;21.16;50.63;101036.78;5038404;28;5247;-78
2022/12/06 05:52:56;;;;;;;;;;;;;;;21.17;50.57;101038.28;5047082;28;4161;-78
2022/12/06 05:55:23;;;;;;;;;;;;;;;21.16;50.61;101023.13;5044217;28;4215;-78
2022/12/06 05:57:49;;;;;;;;;;;;;;;21.18;50.43;101028.97;5041996;28;4041;-73
2022/12/06 06:00:16;;;;;;;;;;;;;;;21.19;50.66;101029.72;5036994;28;4191;-73
2022/12/06 06:02:42;;;;;;;;;;;;;;;21.22;50.37;101046.44;5033639;28;4249;-74
2022/12/06 06:05:09;;;;;;;;;;;;;;;21.22;50.37;101034.91;5039190;28;4113;-75
2022/12/06 06:07:35;;;;;;;;;;;;;;;21.21;50.61;101039.22;5048895;28;5584;-67
2022/12/06 06:10:02;;;;;;;;;;;;;;;21.25;51.31;101039.38;5049851;28;4222;-72
2022/12/06 06:12:28;;;;;;;;;;;;;;;21.26;51.35;101029.34;5036450;28;5445;-69
2022/12/06 06:14:55;;;;;;;;;;;;;;;21.29;51.51;101028.03;5046399;28;5325;-69
2022/12/06 06:17:23;;;;;;;;;;;;;;;21.31;51.78;101031.00;5039329;28;4313;-71
2022/12/06 06:19:49;;;;;;;;;;;;;;;21.30;52.05;101032.41;5046190;28;4291;-73
2022/12/06 06:22:17;;;;;;;;;;;;;;;21.33;52.35;101028.22;5045429;28;4010;-69
2022/12/06 06:24:44;;;;;;;;;;;;;;;21.38;52.37;101039.94;5047894;28;4086;-70
2022/12/06 06:27:10;;;;;;;;;;;;;;;21.39;53.07;101038.53;5047944;28;4029;-69
2022/12/06 06:29:36;;;;;;;;;;;;;;;21.40;53.94;101042.91;5053337;28;4122;-69
2022/12/06 06:32:11;;;;;;;;;;;;;;;21.40;53.64;101037.16;5057562;28;4195;-70
2022/12/06 06:34:37;;;;;;;;;;;;;;;21.37;53.69;101033.41;5040408;28;4224;-70
2022/12/06 06:37:04;;;;;;;;;;;;;;;21.36;54.28;101036.97;5039022;28;5105;-72
2022/12/06 06:39:30;;;;;;;;;;;;;;;21.37;53.90;101042.06;5032444;28;5246;-67
2022/12/06 06:41:56;;;;;;;;;;;;;;;21.37;53.11;101039.19;5032037;28;4104;-68
2022/12/06 06:44:23;;;;;;;;;;;;;;;21.32;50.95;101038.25;5025562;28;4196;-67
2022/12/06 06:46:49;;;;;;;;;;;;;;;21.28;50.39;101046.72;5031945;28;5133;-68
2022/12/06 06:49:17;;;;;;;;;;;;;;;21.24;49.78;101043.66;5033025;28;4132;-70
2022/12/06 06:51:44;;;;;;;;;;;;;;;21.22;49.57;101046.44;5031069;28;4142;-62
2022/12/06 06:54:11;;;;;;;;;;;;;;;21.22;48.85;101043.56;5036072;28;4235;-66
2022/12/06 06:56:37;;;;;;;;;;;;;;;21.20;48.53;101039.84;5032184;28;6309;-67
2022/12/06 06:59:04;;;;;;;;;;;;;;;21.20;48.10;101036.97;5035867;28;4236;-67
2022/12/06 07:01:30;;;;;;;;;;;;;;;21.21;47.46;101033.44;5038171;28;4112;-67
2022/12/06 07:03:57;;;;;;;;;;;;;;;21.20;47.40;101037.72;5040393;28;4133;-67
2022/12/06 07:06:23;;;;;;;;;;;;;;;21.20;46.88;101034.81;5038995;28;4190;-67
2022/12/06 07:08:50;;;;;;;;;;;;;;;21.18;46.82;101039.75;5039546;28;4356;-66
2022/12/06 07:11:16;;;;;;;;;;;;;;;21.10;46.67;101038.00;5029529;28;5142;-71
2022/12/06 07:13:42;;;;;;;;;;;;;;;21.10;46.95;101038.00;5044068;28;4191;-65
2022/12/06 07:16:17;;;;;;;;;;;;;;;20.55;46.17;101040.38;5027253;28;4342;-70
2022/12/06 07:18:44;;;;;;;;;;;;;;;20.24;42.84;101047.50;5019422;28;4471;-68
2022/12/06 07:21:10;;;;;;;;;;;;;;;20.15;40.87;101046.34;5027610;28;4402;-71
2022/12/06 07:23:37;;;;;;;;;;;;;;;19.97;39.66;101043.28;5029809;28;4228;-71
2022/12/06 07:26:07;;;;;;;;;;;;;;;19.90;38.55;101047.25;5032915;28;4197;-78
2022/12/06 07:28:36;;;;;;;;;;;;;;;20.16;38.85;101044.22;5039899;28;5076;-76
2022/12/06 07:31:06;;;;;;;;;;;;;;;20.67;39.39;101046.75;5040011;28;4458;-74
2022/12/06 07:33:33;;;;;;;;;;;;;;;20.92;39.20;101049.41;5033480;28;4097;-73
2022/12/06 07:35:59;;;;;;;;;;;;;;;20.84;39.52;101057.63;5027829;28;4248;-68
2022/12/06 07:38:38;;;;;;;;;;;;;;;20.02;37.94;101050.00;5036046;28;4204;-74
2022/12/06 07:44:59;;;;;;;;;;;;;;;20.24;38.33;101053.25;5038820;28;4164;-76
2022/12/06 07:46:39;;;;;;;;;;;;;;;20.76;38.48;101060.16;5021738;28;4173;-69
2022/12/06 07:49:06;;;;;;;;;;;;;;;20.75;38.95;101055.75;5033123;28;4023;-70
2022/12/06 07:51:32;;;;;;;;;;;;;;;20.62;38.69;101045.06;5037503;28;4146;-71
2022/12/06 07:53:58;;;;;;;;;;;;;;;20.60;40.31;101053.59;5027839;28;4196;-70
2022/12/06 07:56:24;;;;;;;;;;;;;;;20.91;41.72;101059.44;5033444;28;4264;-69
2022/12/06 07:58:51;;;;;;;;;;;;;;;21.01;41.67;101049.78;5039387;28;4159;-69
2022/12/06 08:01:17;;;;;;;;;;;;;;;21.07;41.63;101047.16;5039744;28;4149;-69
2022/12/06 08:03:44;;;;;;;;;;;;;;;21.05;42.12;101044.19;5031355;28;5317;-69
2022/12/06 08:06:10;;;;;;;;;;;;;;;21.07;42.14;101044.28;5022233;28;4134;-69
2022/12/06 08:08:37;;;;;;;;;;;;;;;21.07;43.16;101047.16;5018373;28;5285;-70
2022/12/06 08:11:04;;;;;;;;;;;;;;;21.10;43.98;101043.00;5020956;28;4137;-69
2022/12/06 08:13:31;;;;;;;;;;;;;;;21.13;44.27;101044.59;5031396;28;4196;-70
2022/12/06 08:15:57;;;;;;;;;;;;;;;21.15;45.12;101041.81;5030642;28;4086;-70
2022/12/06 08:18:24;;;;;;;;;;;;;;;21.15;45.50;101049.69;5044556;28;4125;-69
2022/12/06 08:20:52;;;;;;;;;;;;;;;21.16;45.68;101046.16;5046661;28;6033;-69
2022/12/06 08:23:18;;;;;;;;;;;;;;;21.22;45.19;101045.72;5028730;28;4361;-70
2022/12/06 08:25:44;;;;;;;;;;;;;;;21.37;45.02;101047.09;5027214;28;4176;-72
2022/12/06 08:28:11;;;;;;;;;;;;;;;21.42;46.12;101048.81;5030791;28;4283;-71
2022/12/06 08:30:40;;;;;;;;;;;;;;;21.47;45.96;101053.34;5034122;28;4139;-72
2022/12/06 08:33:06;;;;;;;;;;;;;;;21.47;46.24;101047.59;5036438;28;4206;-72
2022/12/06 08:35:35;;;;;;;;;;;;;;;21.49;46.23;101059.19;5035739;28;5294;-74
2022/12/06 08:38:01;;;;;;;;;;;;;;;21.49;46.22;101053.44;5034897;28;4201;-71
2022/12/06 08:40:28;;;;;;;;;;;;;;;21.48;46.08;101054.81;5030892;28;4185;-75
2022/12/06 08:42:54;;;;;;;;;;;;;;;21.48;46.03;101054.81;5038474;28;5242;-75
2022/12/06 08:45:20;;;;;;;;;;;;;;;21.51;46.03;101056.41;5038018;28;4162;-71
2022/12/06 08:47:47;;;;;;;;;;;;;;;21.36;46.40;101057.88;5044368;28;4158;-71
2022/12/06 08:50:13;;;;;;;;;;;;;;;21.30;46.18;101064.09;5037588;28;4744;-71
2022/12/06 08:52:39;;;;;;;;;;;;;;;21.25;46.91;101059.53;5038966;28;5412;-73
2022/12/06 08:55:06;;;;;;;;;;;;;;;21.42;47.48;101060.31;5041612;28;4175;-70
2022/12/06 08:57:32;;;;;;;;;;;;;;;21.57;47.07;101056.66;5032920;28;4197;-73
2022/12/06 08:59:58;;;;;;;;;;;;;;;21.65;47.06;101053.41;5036346;28;4209;-72
2022/12/06 09:02:25;;;;;;;;;;;;;;;21.69;46.74;101050.69;5027196;28;4475;-71
2022/12/06 09:04:51;;;;;;;;;;;;;;;21.71;46.35;101054.41;5043848;28;5566;-73
2022/12/06 09:07:18;;;;;;;;;;;;;;;21.73;46.53;101057.38;5047404;28;5309;-73
2022/12/06 09:09:45;;;;;;;;;;;;;;;21.78;46.63;101046.03;5044901;28;4103;-74
2022/12/06 09:12:11;;;;;;;;;;;;;;;21.80;46.71;101049.00;5046827;28;4197;-74
2022/12/06 09:14:37;;;;;;;;;;;;;;;21.88;46.85;101055.88;5037298;28;4115;-73
2022/12/06 09:17:04;;;;;;;;;;;;;;;21.96;46.80;101056.19;5042553;28;4190;-72
2022/12/06 09:19:30;;;;;;;;;;;;;;;21.98;47.07;101055.56;5044053;28;4467;-73
2022/12/06 09:21:57;;;;;;;;;;;;;;;22.00;46.73;101047.00;5039461;28;4164;-72
2022/12/06 09:24:23;;;;;;;;;;;;;;;22.07;46.78;101042.22;5043431;28;4127;-73
2022/12/06 09:26:49;;;;;;;;;;;;;;;22.15;46.60;101045.44;5031891;28;4340;-74
2022/12/06 09:29:16;;;;;;;;;;;;;;;22.15;46.54;101046.22;5042861;28;4463;-74
2022/12/06 09:31:42;;;;;;;;;;;;;;;22.17;46.50;101043.41;5038570;28;4250;-75
2022/12/06 09:34:09;;;;;;;;;;;;;;;22.17;46.32;101052.06;5041366;28;3909;-72
2022/12/06 09:36:37;;;;;;;;;;;;;;;22.17;46.35;101046.28;5033918;28;4052;-69
2022/12/06 09:39:04;;;;;;;;;;;;;;;22.14;46.39;101041.09;5039405;28;4361;-72
2022/12/06 09:41:43;;;;;;;;;;;;;;;22.15;46.28;101043.31;5035289;28;3950;-72
2022/12/06 09:44:27;;;;;;;;;;;;;;;21.97;46.48;101039.66;5041598;28;4166;-69
2022/12/06 09:47:15;;;;;;;;;;;;;;;21.94;46.69;101041.72;5038762;28;4680;-66
2022/12/06 09:49:44;;;;;;;;;;;;;;;21.91;46.50;101042.28;5042757;28;4318;-66
2022/12/06 09:52:27;;;;;;;;;;;;;;;21.94;46.96;101029.44;5042412;28;4408;-68
2022/12/06 09:55:12;;;;;;;;;;;;;;;22.04;46.81;101037.78;5032648;28;4130;-72
2022/12/06 09:57:41;;;;;;;;;;;;;;;22.10;46.47;101029.38;5036725;28;4254;-71
2022/12/06 10:00:08;;;;;;;;;;;;;;;22.10;46.87;101030.09;5037665;28;4088;-68
2022/12/06 10:02:51;;;;;;;;;;;;;;;21.96;46.96;101030.25;5042843;28;5215;-65
2022/12/06 10:05:24;;;;;;;;;;;;;;;22.03;47.09;101022.59;5046829;28;4378;-65
2022/12/06 10:08:02;;;;;;;;;;;;;;;22.11;46.99;101025.09;5043576;28;3929;-66
2022/12/06 10:10:34;;;;;;;;;;;;;;;22.00;47.33;101026.06;5050966;28;4032;-67
2022/12/06 10:13:11;;;;;;;;;;;;;;;21.97;47.31;101016.59;5053455;28;5637;-66
2022/12/06 10:15:51;;;;;;;;;;;;;;;22.08;47.19;101015.63;5041730;28;4113;-70
2022/12/06 10:18:22;;;;;;;;;;;;;;;21.94;47.16;101012.13;5040532;28;5224;-66
2022/12/06 10:21:07;;;;;;;;;;;;;;;21.93;47.27;101013.53;5049133;28;4151;-65
2022/12/06 10:23:53;;;;;;;;;;;;;;;22.07;47.38;101014.13;5033328;28;5170;-67
2022/12/06 10:26:32;;;;;;;;;;;;;;;22.05;47.14;101016.94;5041271;28;4180;-67
2022/12/06 10:29:18;;;;;;;;;;;;;;;22.10;46.83;101007.03;5039997;28;3992;-66
2022/12/06 10:32:09;;;;;;;;;;;;;;;22.08;47.05;101004.09;5043057;28;4421;-65
2022/12/06 10:34:45;;;;;;;;;;;;;;;21.87;47.05;101010.38;5043961;28;3998;-65
2022/12/06 10:37:33;;;;;;;;;;;;;;;21.84;47.28;101003.81;5046294;28;4117;-70
2022/12/06 10:40:02;;;;;;;;;;;;;;;21.95;47.42;101002.09;5034898;28;4190;-70
2022/12/06 10:42:31;;;;;;;;;;;;;;;21.90;47.05;100995.41;5042657;28;4202;-67
2022/12/06 10:45:02;;;;;;;;;;;;;;;22.00;47.26;101003.00;5042462;28;4013;-67
2022/12/06 10:47:30;;;;;;;;;;;;;;;22.04;46.93;101003.19;5045688;28;4174;-70
2022/12/06 10:50:03;;;;;;;;;;;;;;;21.96;46.58;101003.56;5046874;28;4108;-70
2022/12/06 10:52:40;;;;;;;;;;;;;;;21.91;46.93;101002.66;5039848;28;4021;-68
2022/12/06 10:55:09;;;;;;;;;;;;;;;21.96;47.12;101000.69;5046327;28;4019;-68
2022/12/06 10:57:47;;;;;;;;;;;;;;;22.13;47.02;100985.56;5047331;28;4183;-66
2022/12/06 11:00:14;;;;;;;;;;;;;;;22.17;47.00;100994.38;5027104;28;4471;-68
2022/12/06 11:02:55;;;;;;;;;;;;;;;22.23;47.02;100990.28;5040310;28;3988;-69
2022/12/06 11:05:33;;;;;;;;;;;;;;;22.22;47.03;100995.31;5027339;28;4683;-67
2022/12/06 11:08:01;;;;;;;;;;;;;;;22.22;46.82;100986.66;5036441;28;4144;-67
2022/12/06 11:10:29;;;;;;;;;;;;;;;22.12;47.32;100991.97;5041402;28;4137;-67
2022/12/06 11:12:57;;;;;;;;;;;;;;;22.17;47.31;100988.59;5042641;28;4928;-67
2022/12/06 11:15:27;;;;;;;;;;;;;;;22.22;47.02;100980.88;5045277;28;4750;-67
2022/12/06 11:18:01;;;;;;;;;;;;;;;22.23;46.88;100972.97;5047941;28;4039;-71
2022/12/06 11:20:28;;;;;;;;;;;;;;;22.15;46.93;100968.34;5051490;28;4397;-71
2022/12/06 11:23:04;;;;;;;;;;;;;;;22.24;47.09;100965.78;5050545;28;4081;-69
2022/12/06 11:25:50;;;;;;;;;;;;;;;22.24;46.95;100965.78;5048771;28;4139;-69
2022/12/06 11:28:36;;;;;;;;;;;;;;;22.26;47.11;100965.88;5031141;28;4958;-69
2022/12/06 11:31:14;;;;;;;;;;;;;;;22.25;46.80;100964.41;5027145;28;3993;-67
2022/12/06 11:33:41;;;;;;;;;;;;;;;22.14;46.52;100963.94;5029375;28;3946;-68
2022/12/06 11:36:08;;;;;;;;;;;;;;;22.22;46.72;100971.47;5031793;28;4176;-67
2022/12/06 11:38:34;;;;;;;;;;;;;;;22.22;46.88;100957.06;5035229;28;4186;-69
2022/12/06 11:41:00;;;;;;;;;;;;;;;22.22;46.93;100959.94;5016629;28;4247;-67
2022/12/06 11:43:28;;;;;;;;;;;;;;;22.08;46.48;100957.97;5027347;28;4195;-69
2022/12/06 11:45:54;;;;;;;;;;;;;;;21.98;47.10;100945.25;5029362;28;4840;-71
2022/12/06 11:48:21;;;;;;;;;;;;;;;21.99;46.66;100956.13;5028169;28;4751;-69
2022/12/06 11:50:48;;;;;;;;;;;;;;;21.99;47.59;100950.38;5034489;28;4346;-68
2022/12/06 11:53:17;;;;;;;;;;;;;;;22.14;47.22;100943.03;5035878;28;5085;-69
2022/12/06 11:55:44;;;;;;;;;;;;;;;22.06;47.00;100937.69;5039223;28;4164;-67
2022/12/06 11:58:15;;;;;;;;;;;;;;;22.05;47.24;100936.19;5041778;28;3956;-67
2022/12/06 12:00:54;;;;;;;;;;;;;;;22.08;47.37;100945.66;5034030;28;4085;-66
2022/12/06 12:03:27;;;;;;;;;;;;;;;22.14;47.05;100938.00;5045390;28;4328;-66
2022/12/06 12:06:05;;;;;;;;;;;;;;;22.15;47.31;100933.72;5043696;28;4208;-67
2022/12/06 12:08:31;;;;;;;;;;;;;;;22.17;47.11;100930.94;5046036;28;4084;-68
2022/12/06 12:10:58;;;;;;;;;;;;;;;22.19;47.49;100927.34;5040988;28;5296;-68
2022/12/06 12:13:43;;;;;;;;;;;;;;;22.20;47.27;100928.84;5042845;28;3966;-69
2022/12/06 12:16:11;;;;;;;;;;;;;;;22.17;47.31;100930.16;5031217;28;4146;-69
2022/12/06 12:18:39;;;;;;;;;;;;;;;22.18;46.95;100926.63;5045933;28;6488;-69
2022/12/06 12:21:05;;;;;;;;;;;;;;;22.26;47.50;100925.50;5049541;28;4491;-67
2022/12/06 12:23:32;;;;;;;;;;;;;;;22.36;46.96;100925.91;5037751;28;4275;-66
2022/12/06 12:26:01;;;;;;;;;;;;;;;21.75;45.68;100930.66;5044416;28;4193;-66
2022/12/06 12:28:29;;;;;;;;;;;;;;;21.56;45.68;100934.16;5043324;28;5386;-69
2022/12/06 12:30:55;;;;;;;;;;;;;;;21.93;46.29;100927.03;5044224;28;5293;-66
2022/12/06 12:33:22;;;;;;;;;;;;;;;22.11;46.64;100918.41;5038220;28;5299;-64
2022/12/06 12:35:53;;;;;;;;;;;;;;;22.10;46.76;100920.53;5040380;28;4231;-77
2022/12/06 12:38:24;;;;;;;;;;;;;;;22.14;46.51;100917.81;5032301;28;4679;-70
2022/12/06 12:40:51;;;;;;;;;;;;;;;22.16;46.67;100920.78;5035655;28;4280;-75
2022/12/06 12:43:21;;;;;;;;;;;;;;;22.14;46.99;100926.47;5039671;28;4801;-73
2022/12/06 12:46:01;;;;;;;;;;;;;;;22.15;47.49;100919.31;5043431;28;4104;-70
2022/12/06 12:48:28;;;;;;;;;;;;;;;22.16;47.02;100923.66;5037246;28;4856;-65
2022/12/06 12:50:55;;;;;;;;;;;;;;;22.20;47.38;100928.84;5041038;28;4517;-65
2022/12/06 12:53:40;;;;;;;;;;;;;;;22.20;47.46;100922.34;5042641;28;6059;-66
2022/12/06 12:56:07;;;;;;;;;;;;;;;22.17;47.68;100916.50;5034969;28;5435;-65
2022/12/06 12:58:33;;;;;;;;;;;;;;;22.17;47.74;100919.38;5043835;28;4105;-65
2022/12/06 13:01:04;;;;;;;;;;;;;;;22.21;47.70;100912.28;5038909;28;4190;-65
2022/12/06 13:03:31;;;;;;;;;;;;;;;22.23;47.83;100909.50;5037603;28;4025;-65
2022/12/06 13:06:35;;;;;;;;;;;;;;;22.25;47.65;100906.72;5025330;28;4156;-66
2022/12/06 13:09:01;;;;;;;;;;;;;;;22.26;47.49;100913.94;5033551;28;4860;-66
2022/12/06 13:11:28;;;;;;;;;;;;;;;22.24;47.50;100905.97;5040013;28;5418;-65
2022/12/06 13:13:54;;;;;;;;;;;;;;;22.23;47.72;100903.75;5039450;28;5455;-60
2022/12/06 13:16:29;;;;;;;;;;;;;;;22.15;47.79;100904.88;5043075;28;4283;-66